Time;durP1;ratioP1;P1;durP2;ratioP2;P2;SDS_P1;SDS_P2;PMS_P1;PMS_P2;Temp;Humidity;BMP_temperature;BMP_pressure;BME280_temperature;BME280_humidity;BME280_pressure;Samples;Min_cycle;Max_cycle;Signal;HPM_P1;HPM_P2
2022/08/30 00:03:05;;;;;;;;;5.00;3.75;;;;;22.74;39.74;101327.28;4976574;28;45315;-51
2022/08/30 00:05:32;;;;;;;;;2.50;2.50;;;;;22.79;39.90;101346.44;4976207;28;45996;-51
2022/08/30 00:07:57;;;;;;;;;4.40;4.40;;;;;22.79;39.89;101360.00;4976109;28;45370;-51
2022/08/30 00:10:25;;;;;;;;;4.75;4.75;;;;;22.76;39.73;101357.75;4976401;28;45955;-49
2022/08/30 00:12:50;;;;;;;;;5.00;3.25;;;;;22.71;40.09;101357.53;4976512;28;45429;-53
2022/08/30 00:15:18;;;;;;;;;6.00;4.00;;;;;22.71;39.72;101360.25;4975759;28;46099;-52
2022/08/30 00:17:44;;;;;;;;;3.60;3.60;;;;;22.70;39.93;101378.41;4976081;28;45307;-51
2022/08/30 00:20:15;;;;;;;;;6.25;4.00;;;;;22.69;40.03;101381.34;4976065;28;45402;-53
2022/08/30 00:22:41;;;;;;;;;6.00;4.00;;;;;22.71;39.86;101376.50;4990360;28;45466;-52
2022/08/30 00:25:07;;;;;;;;;5.25;3.50;;;;;22.73;39.63;101371.72;4975796;28;45422;-51
2022/08/30 00:27:33;;;;;;;;;8.20;4.20;;;;;22.75;39.75;101359.59;4976082;28;45363;-52
2022/08/30 00:29:59;;;;;;;;;5.00;4.00;;;;;22.77;39.49;101362.94;4975849;28;45417;-51
2022/08/30 00:32:25;;;;;;;;;5.25;5.00;;;;;22.74;39.28;101347.09;4976048;28;45148;-51
2022/08/30 00:34:51;;;;;;;;;6.25;4.00;;;;;22.75;39.38;101351.47;4975629;28;45434;-52
2022/08/30 00:37:17;;;;;;;;;5.60;3.80;;;;;22.74;39.60;101354.41;4975672;28;45169;-50
2022/08/30 00:39:43;;;;;;;;;5.60;3.40;;;;;22.75;39.80;101372.34;4975865;28;45513;-51
2022/08/30 00:42:09;;;;;;;;;4.00;4.00;;;;;22.74;39.47;101352.53;4975991;28;45340;-53
2022/08/30 00:44:35;;;;;;;;;5.25;4.50;;;;;22.71;39.78;101352.09;4975542;28;46547;-53
2022/08/30 00:47:01;;;;;;;;;4.00;4.00;;;;;22.69;39.67;101359.63;4974442;28;45352;-53
2022/08/30 00:49:28;;;;;;;;;3.75;3.75;;;;;22.65;38.99;101348.38;4975802;28;45342;-53
2022/08/30 00:51:54;;;;;;;;;3.00;2.75;;;;;22.65;39.53;101354.63;4976060;28;45425;-52
2022/08/30 00:54:20;;;;;;;;;4.00;4.00;;;;;22.63;39.70;101354.00;4975587;28;46090;-53
2022/08/30 00:56:48;;;;;;;;;6.00;3.25;;;;;22.58;39.30;101348.38;4975618;28;45237;-53
2022/08/30 00:59:14;;;;;;;;;3.20;3.20;;;;;22.58;39.58;101344.81;4974206;28;45519;-52
2022/08/30 01:01:39;;;;;;;;;3.00;3.00;;;;;22.57;39.40;101349.41;4975630;28;45513;-52
2022/08/30 01:04:07;;;;;;;;;5.50;4.00;;;;;22.57;39.64;101354.84;4975316;28;45762;-52
2022/08/30 01:06:34;;;;;;;;;3.60;3.20;;;;;22.55;40.14;101351.53;4975242;28;45356;-50
2022/08/30 01:09:01;;;;;;;;;5.00;2.80;;;;;22.55;39.91;101356.94;4975473;28;45354;-50
2022/08/30 01:11:27;;;;;;;;;5.00;5.00;;;;;22.54;39.57;101352.53;4975596;28;45457;-52
2022/08/30 01:13:55;;;;;;;;;4.00;3.50;;;;;22.57;40.01;101356.72;4975065;28;46202;-52
2022/08/30 01:16:22;;;;;;;;;4.20;4.00;;;;;22.57;39.91;101352.13;4975367;28;45474;-52
2022/08/30 01:18:49;;;;;;;;;5.25;4.25;;;;;22.57;39.92;101360.28;4975492;28;45372;-50
2022/08/30 01:21:22;;;;;;;;;6.25;3.00;;;;;22.56;39.71;101361.31;4975486;28;45217;-54
2022/08/30 01:23:50;;;;;;;;;4.50;4.00;;;;;22.57;40.17;101365.69;4975437;28;45440;-50
2022/08/30 01:26:16;;;;;;;;;3.20;3.00;;;;;22.57;39.93;101359.44;4975089;28;45553;-52
2022/08/30 01:28:50;;;;;;;;;6.00;4.75;;;;;22.58;39.88;101363.81;4975392;28;45311;-52
2022/08/30 01:31:16;;;;;;;;;5.00;3.00;;;;;22.49;40.00;101360.50;4975226;28;45447;-53
2022/08/30 01:33:42;;;;;;;;;4.00;4.00;;;;;22.48;40.15;101375.09;4975305;28;45414;-50
2022/08/30 01:36:11;;;;;;;;;5.00;4.50;;;;;22.42;40.20;101365.09;4994174;28;45599;-52
2022/08/30 01:38:47;;;;;;;;;4.75;1.75;;;;;22.49;40.13;101381.34;4994540;28;45260;-51
2022/08/30 01:41:25;;;;;;;;;4.50;3.50;;;;;22.38;40.06;101374.69;4994837;28;45358;-52
2022/08/30 01:43:53;;;;;;;;;3.75;3.75;;;;;22.47;40.20;101400.53;4994387;28;47187;-49
2022/08/30 01:46:23;;;;;;;;;3.80;3.60;;;;;22.47;40.15;101400.53;4994434;28;45452;-52
2022/08/30 01:48:49;;;;;;;;;5.25;3.50;;;;;22.47;40.41;101395.13;4994728;28;45587;-52
2022/08/30 01:51:15;;;;;;;;;5.00;3.75;;;;;22.46;40.02;101396.19;4994801;28;45184;-51
2022/08/30 01:53:43;;;;;;;;;4.25;3.00;;;;;22.45;40.33;101402.63;4994320;28;46104;-52
2022/08/30 01:56:09;;;;;;;;;7.60;2.40;;;;;22.45;40.54;101401.78;4994570;28;45404;-52
2022/08/30 01:58:36;;;;;;;;;4.60;4.60;;;;;22.43;40.42;101404.72;4994414;28;45380;-53
2022/08/30 02:01:05;;;;;;;;;3.00;3.00;;;;;22.39;40.53;101401.59;4994457;28;45511;-51
2022/08/30 02:03:33;;;;;;;;;5.00;5.00;;;;;22.23;40.56;101374.91;4994189;27;47594;-49
2022/08/30 02:06:07;;;;;;;;;4.60;4.20;;;;;22.28;40.41;101390.53;4994051;28;45445;-53
2022/08/30 02:08:34;;;;;;;;;5.00;3.00;;;;;22.24;40.62;101381.97;4994532;27;45719;-53
2022/08/30 02:11:00;;;;;;;;;4.50;4.00;;;;;22.21;40.82;101382.41;4994440;28;45408;-49
2022/08/30 02:13:26;;;;;;;;;6.00;5.00;;;;;22.07;41.63;101357.13;4994246;28;45975;-53
2022/08/30 02:15:55;;;;;;;;;6.25;4.00;;;;;22.12;41.36;101389.03;4993823;28;45506;-52
2022/08/30 02:18:23;;;;;;;;;5.75;4.00;;;;;22.11;41.33;101385.47;4994153;28;45387;-51
2022/08/30 02:20:48;;;;;;;;;5.00;5.00;;;;;22.11;41.46;101388.19;4994418;28;45535;-51
2022/08/30 02:23:14;;;;;;;;;4.75;3.00;;;;;22.11;41.29;101388.19;4993862;28;46159;-50
2022/08/30 02:25:40;;;;;;;;;4.00;4.00;;;;;22.11;41.06;101390.06;4993962;28;45374;-50
2022/08/30 02:28:06;;;;;;;;;4.25;4.00;;;;;22.08;40.96;101383.22;4994016;28;45418;-52
2022/08/30 02:30:31;;;;;;;;;6.00;4.00;;;;;22.09;41.28;101393.00;5009246;28;45484;-50
2022/08/30 02:32:57;;;;;;;;;4.00;4.00;;;;;22.05;41.13;101391.75;4993968;28;47116;-53
2022/08/30 02:35:22;;;;;;;;;4.00;3.00;;;;;22.05;41.21;101402.56;4993926;28;45447;-50
2022/08/30 02:37:48;;;;;;;;;4.00;4.00;;;;;21.97;41.22;101378.38;4993913;28;45532;-52
2022/08/30 02:40:14;;;;;;;;;5.75;3.75;;;;;22.07;41.17;101395.06;4994136;28;45337;-54
2022/08/30 02:42:40;;;;;;;;;3.25;3.25;;;;;22.08;41.39;101398.59;4993692;28;46125;-51
2022/08/30 02:45:07;;;;;;;;;5.60;3.60;;;;;21.67;41.63;101331.88;4994785;28;45276;-51
2022/08/30 02:47:32;;;;;;;;;6.00;3.00;;;;;21.99;41.19;101389.84;4996873;28;45437;-52
2022/08/30 02:49:57;;;;;;;;;6.00;3.75;;;;;22.01;41.36;101386.94;4997223;28;45204;-51
2022/08/30 02:52:23;;;;;;;;;5.25;4.25;;;;;22.01;41.69;101389.66;4996668;28;46192;-52
2022/08/30 02:54:49;;;;;;;;;4.75;4.00;;;;;21.91;41.35;101380.06;4996665;28;45338;-52
2022/08/30 02:57:14;;;;;;;;;4.00;4.00;;;;;22.02;41.59;101389.44;4997048;28;45437;-50
2022/08/30 02:59:42;;;;;;;;;5.25;4.00;;;;;22.02;41.02;101386.72;4996918;28;45322;-51
2022/08/30 03:02:09;;;;;;;;;6.00;4.50;;;;;22.02;41.42;101384.00;4996282;28;46146;-50
2022/08/30 03:04:35;;;;;;;;;6.25;4.00;;;;;22.04;41.49;101394.66;4996812;28;45321;-52
2022/08/30 03:07:01;;;;;;;;;4.25;4.25;;;;;22.05;41.40;101408.00;4996604;28;45266;-49
2022/08/30 03:09:26;;;;;;;;;5.25;3.50;;;;;22.08;41.62;101406.72;5012119;28;45337;-51
2022/08/30 03:11:52;;;;;;;;;6.00;4.25;;;;;21.91;44.69;101388.19;4996273;28;46440;-49
2022/08/30 03:14:17;;;;;;;;;8.25;4.00;;;;;21.90;45.78;101391.91;4996606;28;45314;-50
2022/08/30 03:16:43;;;;;;;;;6.75;5.00;;;;;21.73;47.66;101389.78;4996664;28;45315;-52
2022/08/30 03:19:08;;;;;;;;;8.75;6.00;;;;;21.53;48.95;101396.00;4996652;28;45226;-52
2022/08/30 03:21:36;;;;;;;;;8.25;6.75;;;;;21.38;50.40;101415.09;4996259;28;45392;-52
2022/08/30 03:24:01;;;;;;;;;8.25;4.00;;;;;21.27;51.26;101429.16;4996192;28;45482;-53
2022/08/30 03:26:27;;;;;;;;;7.25;5.00;;;;;21.24;50.12;101426.00;4996640;28;45312;-51
2022/08/30 03:28:52;;;;;;;;;7.00;7.00;;;;;21.17;52.35;101401.63;4996634;28;45288;-53
2022/08/30 03:31:17;;;;;;;;;7.00;6.50;;;;;21.07;53.01;101380.38;4996212;28;46195;-51
2022/08/30 03:33:43;;;;;;;;;11.00;7.00;;;;;20.93;53.46;101370.50;4996295;28;45256;-51
2022/08/30 03:36:09;;;;;;;;;12.00;6.00;;;;;20.71;54.44;101350.00;4996355;28;45459;-50
2022/08/30 03:38:35;;;;;;;;;8.00;7.00;;;;;20.64;55.25;101355.34;4996401;28;45367;-51
2022/08/30 03:41:00;;;;;;;;;8.25;7.25;;;;;20.46;55.41;101347.72;4996074;28;45536;-51
2022/08/30 03:43:25;;;;;;;;;6.25;5.50;;;;;20.36;55.38;101333.72;4995915;28;45452;-52
2022/08/30 03:45:51;;;;;;;;;6.50;6.50;;;;;20.17;53.38;101325.25;4996176;28;45301;-52
2022/08/30 03:48:16;;;;;;;;;10.00;5.25;;;;;20.03;56.22;101319.94;4996322;28;45246;-50
2022/08/30 03:50:42;;;;;;;;;6.50;5.00;;;;;19.87;56.05;101327.28;4995872;28;45849;-51
2022/08/30 03:53:07;;;;;;;;;10.25;7.25;;;;;19.75;55.95;101312.63;4996081;28;45350;-51
2022/08/30 03:55:33;;;;;;;;;6.33;6.33;;;;;19.75;57.80;101328.00;4994568;28;45210;-50
2022/08/30 03:57:58;;;;;;;;;6.00;5.75;;;;;19.77;56.88;101334.06;4994515;28;45228;-50
2022/08/30 04:00:24;;;;;;;;;10.00;6.00;;;;;19.79;55.98;101334.69;4995764;28;46217;-51
2022/08/30 04:02:49;;;;;;;;;7.00;5.25;;;;;19.82;57.50;101335.13;4995848;28;45383;-53
2022/08/30 04:05:14;;;;;;;;;8.50;6.50;;;;;19.86;58.42;101331.00;4996256;28;45370;-51
2022/08/30 04:07:40;;;;;;;;;10.00;6.25;;;;;19.82;58.77;101323.50;4996816;28;45280;-50
2022/08/30 04:10:08;;;;;;;;;7.75;5.75;;;;;19.82;59.04;101305.44;4996403;28;45407;-48
2022/08/30 04:12:33;;;;;;;;;6.75;6.00;;;;;19.72;58.29;101288.75;4995996;28;45366;-52
2022/08/30 04:14:59;;;;;;;;;9.00;6.00;;;;;19.75;58.60;101301.81;4995748;28;45299;-52
2022/08/30 04:17:24;;;;;;;;;8.00;5.75;;;;;19.79;55.64;101299.56;4995915;28;45415;-52
2022/08/30 04:19:50;;;;;;;;;9.50;7.00;;;;;19.82;57.58;101307.31;4995476;28;47144;-51
2022/08/30 04:22:16;;;;;;;;;8.00;6.00;;;;;19.82;57.59;101304.59;4995224;28;45288;-52
2022/08/30 04:24:41;;;;;;;;;7.00;6.00;;;;;19.81;58.40;101308.34;4995566;28;45239;-51
2022/08/30 04:27:07;;;;;;;;;8.25;7.25;;;;;19.84;58.66;101302.53;4995658;28;45365;-51
2022/08/30 04:29:34;;;;;;;;;7.00;5.75;;;;;19.79;58.35;101300.41;4995411;28;46097;-50
2022/08/30 04:32:00;;;;;;;;;8.00;4.50;;;;;19.91;58.01;101319.63;4993990;28;45381;-50
2022/08/30 04:34:25;;;;;;;;;11.33;7.33;;;;;19.98;58.46;101308.91;4995675;28;45383;-53
2022/08/30 04:36:51;;;;;;;;;7.50;7.50;;;;;19.96;58.25;101311.78;4995375;27;45240;-52
2022/08/30 04:39:17;;;;;;;;;7.50;6.50;;;;;19.97;57.29;101318.84;4995218;28;45390;-49
2022/08/30 04:41:42;;;;;;;;;6.75;6.75;;;;;19.94;57.43;101311.16;4995499;28;45379;-49
2022/08/30 04:44:08;;;;;;;;;6.50;6.50;;;;;19.91;57.67;101316.94;4995125;28;45441;-50
2022/08/30 04:46:34;;;;;;;;;6.00;4.75;;;;;20.00;57.81;101326.56;4995511;28;45381;-51
2022/08/30 04:49:00;;;;;;;;;7.00;6.00;;;;;20.03;57.83;101331.59;4995227;28;46975;-52
2022/08/30 04:51:26;;;;;;;;;10.33;7.67;;;;;20.04;58.40;101333.25;4995276;28;45272;-52
2022/08/30 04:53:51;;;;;;;;;9.00;7.00;;;;;20.06;58.15;101327.66;4995356;28;45344;-50
2022/08/30 04:56:23;;;;;;;;;5.00;5.00;;;;;20.11;57.07;101326.03;4995243;27;45421;-52
2022/08/30 04:58:51;;;;;;;;;9.25;7.50;;;;;20.16;57.58;101320.06;4995038;28;46122;-52
2022/08/30 05:01:28;;;;;;;;;6.75;6.00;;;;;20.18;57.56;101332.34;4994968;28;45270;-51
2022/08/30 05:03:54;;;;;;;;;7.00;5.00;;;;;20.22;57.97;101329.22;4995176;28;45248;-51
2022/08/30 05:06:22;;;;;;;;;6.00;6.00;;;;;20.19;56.67;101334.00;4995187;27;45382;-50
2022/08/30 05:08:47;;;;;;;;;8.75;6.25;;;;;20.17;56.09;101324.41;4996226;27;46312;-51
2022/08/30 05:11:15;;;;;;;;;7.00;6.25;;;;;20.19;56.83;101330.47;4995094;28;45406;-48
2022/08/30 05:13:40;;;;;;;;;9.25;8.25;;;;;20.17;57.78;101335.22;4995346;28;45219;-52
2022/08/30 05:16:06;;;;;;;;;9.50;6.75;;;;;20.14;57.26;101317.56;4994998;28;45263;-53
2022/08/30 05:18:32;;;;;;;;;9.50;7.50;;;;;20.19;57.25;101327.78;4994787;28;46388;-53
2022/08/30 05:21:10;;;;;;;;;10.00;7.75;;;;;20.19;57.04;101331.31;4994826;28;45321;-52
2022/08/30 05:23:37;;;;;;;;;7.25;6.00;;;;;20.19;57.73;101341.28;4995198;28;45497;-53
2022/08/30 05:26:11;;;;;;;;;7.75;7.50;;;;;20.16;57.15;101337.09;4994986;28;45461;-51
2022/08/30 05:28:36;;;;;;;;;7.25;7.25;;;;;20.16;57.42;101342.50;4994600;27;46520;-51
2022/08/30 05:31:10;;;;;;;;;8.00;6.25;;;;;20.18;57.39;101345.84;4994576;28;45294;-53
2022/08/30 05:33:36;;;;;;;;;8.00;7.25;;;;;20.19;57.20;101350.22;4995032;28;45331;-53
2022/08/30 05:36:05;;;;;;;;;11.00;6.00;;;;;20.26;57.03;101354.81;4994947;28;45269;-51
2022/08/30 05:38:30;;;;;;;;;7.00;6.00;;;;;20.27;57.31;101359.19;4994185;28;46210;-53
2022/08/30 05:40:56;;;;;;;;;9.50;7.50;;;;;20.18;57.09;101353.09;4994444;28;45397;-53
2022/08/30 05:43:21;;;;;;;;;6.25;6.25;;;;;20.28;56.82;101367.13;4994686;28;45275;-52
2022/08/30 05:45:46;;;;;;;;;11.50;7.25;;;;;20.28;57.27;101372.53;4994782;27;45470;-53
2022/08/30 05:48:12;;;;;;;;;9.50;6.00;;;;;20.30;56.50;101369.63;4994518;28;45432;-51
2022/08/30 05:50:37;;;;;;;;;10.75;8.00;;;;;20.31;56.78;101369.44;4994304;28;45435;-53
2022/08/30 05:53:02;;;;;;;;;10.00;7.25;;;;;20.30;56.12;101365.03;4994582;28;45287;-52
2022/08/30 05:55:28;;;;;;;;;8.50;8.50;;;;;20.36;55.62;101371.56;4994773;28;45267;-52
2022/08/30 05:57:53;;;;;;;;;7.50;7.00;;;;;20.41;55.69;101374.50;4994175;28;47230;-53
2022/08/30 06:00:19;;;;;;;;;8.00;6.50;;;;;20.45;55.51;101356.84;4994319;28;45370;-51
2022/08/30 06:02:44;;;;;;;;;8.75;7.50;;;;;20.59;55.45;101371.31;4994200;28;45372;-51
2022/08/30 06:05:10;;;;;;;;;8.00;5.75;;;;;20.66;55.05;101356.81;4993199;28;45413;-53
2022/08/30 06:07:36;;;;;;;;;12.50;8.00;;;;;20.75;54.48;101357.50;4994140;28;46214;-49
2022/08/30 06:10:03;;;;;;;;;7.00;6.00;;;;;20.82;53.79;101360.25;4993966;28;45258;-52
2022/08/30 06:12:28;;;;;;;;;7.50;5.00;;;;;20.86;53.84;101356.94;4994181;28;45326;-50
2022/08/30 06:14:54;;;;;;;;;9.25;7.00;;;;;20.89;53.55;101356.53;4994184;28;45462;-52
2022/08/30 06:17:19;;;;;;;;;8.00;8.00;;;;;20.95;53.22;101360.31;4993769;28;46215;-52
2022/08/30 06:19:45;;;;;;;;;7.00;6.75;;;;;21.00;53.16;101357.84;4995128;28;45383;-53
2022/08/30 06:22:10;;;;;;;;;7.00;6.50;;;;;20.99;52.36;101353.47;4997105;28;45542;-48
2022/08/30 06:24:35;;;;;;;;;7.75;6.50;;;;;21.05;52.58;101351.84;4997410;28;45347;-51
2022/08/30 06:27:01;;;;;;;;;9.75;8.00;;;;;21.07;51.92;101364.13;4996792;28;45453;-53
2022/08/30 06:29:26;;;;;;;;;7.25;6.00;;;;;21.09;51.37;101359.34;4996952;28;45355;-54
2022/08/30 06:31:52;;;;;;;;;7.00;7.00;;;;;21.19;51.28;101369.78;4997141;28;45375;-52
2022/08/30 06:34:17;;;;;;;;;8.00;5.75;;;;;21.27;51.93;101363.38;4997232;28;45203;-52
2022/08/30 06:36:43;;;;;;;;;8.25;6.00;;;;;21.33;51.33;101365.31;4996641;27;45536;-53
2022/08/30 06:39:08;;;;;;;;;7.00;6.00;;;;;21.43;50.83;101363.88;4997307;28;45207;-53
2022/08/30 06:41:36;;;;;;;;;7.75;5.00;;;;;21.50;50.82;101366.63;4997029;28;45386;-52
2022/08/30 06:44:03;;;;;;;;;7.00;4.75;;;;;21.60;50.99;101371.66;4997002;28;45354;-51
2022/08/30 06:46:31;;;;;;;;;8.50;8.25;;;;;21.67;51.04;101378.75;4996655;28;45416;-53
2022/08/30 06:48:57;;;;;;;;;7.00;6.00;;;;;21.75;50.86;101375.03;4996576;28;45353;-51
2022/08/30 06:51:30;;;;;;;;;7.50;7.50;;;;;21.82;50.20;101375.03;4996935;28;45367;-53
2022/08/30 06:53:56;;;;;;;;;8.25;7.25;;;;;21.85;50.06;101372.75;4995770;28;45470;-50
2022/08/30 06:56:22;;;;;;;;;9.25;8.00;;;;;21.90;49.63;101374.81;4996806;28;45285;-54
2022/08/30 06:58:48;;;;;;;;;11.75;8.25;;;;;21.98;48.95;101374.63;4996506;28;45291;-51
2022/08/30 07:01:18;;;;;;;;;9.50;8.50;;;;;22.05;49.36;101380.91;4996692;28;45307;-50
2022/08/30 07:03:44;;;;;;;;;8.00;7.00;;;;;22.14;48.97;101373.44;4996689;28;45410;-48
2022/08/30 07:06:10;;;;;;;;;7.00;6.50;;;;;22.22;49.10;101386.78;4996461;28;45350;-50
2022/08/30 07:08:37;;;;;;;;;9.75;8.00;;;;;22.30;48.85;101389.28;4996663;28;45409;-48
2022/08/30 07:11:04;;;;;;;;;8.50;7.50;;;;;22.46;47.61;101392.59;4996556;28;45429;-50
2022/08/30 07:13:30;;;;;;;;;14.00;8.50;;;;;22.90;46.42;101387.38;4995523;28;45382;-49
2022/08/30 07:15:56;;;;;;;;;11.00;7.50;;;;;23.56;45.33;101397.16;4996228;28;46103;-50
2022/08/30 07:21:12;;;;;;;;;5.50;5.50;;;;;24.35;43.60;101392.25;4996412;28;45510;-52
2022/08/30 07:23:38;;;;;;;;;6.50;5.75;;;;;24.61;42.12;101388.50;4996454;28;45434;-50
2022/08/30 07:26:06;;;;;;;;;8.50;7.25;;;;;24.76;42.42;101383.53;4996328;28;45394;-55
2022/08/30 07:28:32;;;;;;;;;8.00;8.00;;;;;24.75;42.31;101387.31;4996076;28;45343;-51
2022/08/30 07:30:58;;;;;;;;;10.00;6.00;;;;;24.53;42.52;101367.88;4996321;28;45306;-50
2022/08/30 07:33:23;;;;;;;;;9.50;9.00;;;;;24.50;43.01;101383.78;4996303;28;45328;-52
2022/08/30 07:35:49;;;;;;;;;10.75;9.00;;;;;24.37;43.00;101390.16;4994353;28;46131;-51
2022/08/30 07:38:14;;;;;;;;;10.25;9.00;;;;;24.24;42.88;101391.09;4983775;28;45353;-50
2022/08/30 07:40:39;;;;;;;;;11.25;8.00;;;;;24.22;43.33;101390.47;5002563;28;45255;-49
2022/08/30 07:43:05;;;;;;;;;13.25;10.00;;;;;24.26;43.01;101385.41;5073504;28;45251;-50
2022/08/30 07:45:31;;;;;;;;;7.25;6.00;;;;;24.40;42.53;101389.75;5071323;27;45520;-52
2022/08/30 07:47:56;;;;;;;;;11.00;9.25;;;;;24.55;42.44;101390.22;5021672;28;45569;-50
2022/08/30 07:50:22;;;;;;;;;10.75;9.00;;;;;24.87;41.53;101395.56;5067436;28;45947;-53
2022/08/30 07:52:48;;;;;;;;;9.50;8.50;;;;;25.26;41.17;101390.75;5071424;27;45524;-51
2022/08/30 07:55:13;;;;;;;;;8.50;8.00;;;;;25.60;40.68;101387.34;5074339;27;45424;-50
2022/08/30 07:57:38;;;;;;;;;12.25;7.50;;;;;25.60;40.50;101391.97;5074948;27;45438;-52
2022/08/30 08:00:05;;;;;;;;;14.75;11.75;;;;;25.92;39.64;101392.59;5038782;27;45487;-51
2022/08/30 08:02:31;;;;;;;;;9.00;8.00;;;;;26.28;39.00;101393.50;4975066;28;45657;-53
2022/08/30 08:04:57;;;;;;;;;10.20;9.80;;;;;26.55;38.69;101393.94;4974716;28;45645;-52
2022/08/30 08:07:22;;;;;;;;;9.25;8.50;;;;;26.59;38.65;101400.56;4978832;28;45418;-50
2022/08/30 08:09:48;;;;;;;;;6.25;6.25;;;;;26.54;38.72;101395.78;4975186;28;45948;-53
2022/08/30 08:12:13;;;;;;;;;12.00;8.00;;;;;26.45;39.33;101401.84;4977698;28;45475;-53
2022/08/30 08:14:40;;;;;;;;;13.00;10.75;;;;;26.23;39.76;101398.84;5073636;27;46859;-48
2022/08/30 08:17:05;;;;;;;;;13.20;11.00;;;;;26.03;39.54;101391.78;5074341;27;45379;-50
2022/08/30 08:19:30;;;;;;;;;9.25;7.50;;;;;25.91;39.59;101401.81;5074158;27;45406;-49
2022/08/30 08:21:59;;;;;;;;;11.00;8.75;;;;;26.34;38.96;101398.03;5074503;27;45435;-51
2022/08/30 08:24:26;;;;;;;;;9.20;8.40;;;;;26.95;38.18;101406.81;5032682;27;45462;-51
2022/08/30 08:26:51;;;;;;;;;9.00;8.00;;;;;27.30;37.30;101409.50;4974738;28;45493;-48
2022/08/30 08:29:17;;;;;;;;;13.25;8.50;;;;;27.53;36.81;101409.44;4974121;28;45481;-50
2022/08/30 08:31:44;;;;;;;;;10.00;8.75;;;;;27.44;37.22;101416.38;4974955;28;45434;-51
2022/08/30 08:34:10;;;;;;;;;13.80;8.60;;;;;27.17;37.55;101417.97;4974373;28;47021;-52
2022/08/30 08:36:35;;;;;;;;;8.75;7.00;;;;;27.04;37.65;101417.13;4974454;28;46383;-51
2022/08/30 08:39:04;;;;;;;;;10.00;6.75;;;;;27.34;37.66;101433.38;4979230;28;45885;-50
2022/08/30 08:41:47;;;;;;;;;7.80;7.40;;;;;27.92;36.99;101417.03;4975106;28;45455;-51
2022/08/30 08:44:25;;;;;;;;;8.60;8.40;;;;;28.05;36.50;101423.00;4973608;28;46383;-50
2022/08/30 08:46:50;;;;;;;;;11.00;9.20;;;;;28.02;36.65;101426.25;4973983;28;45421;-52
2022/08/30 08:49:16;;;;;;;;;10.00;6.50;;;;;28.07;36.31;101429.06;4974257;28;45506;-49
2022/08/30 08:54:56;;;;;;;;;9.00;6.20;;;;;30.09;34.49;101430.50;5073727;27;45534;-50
2022/08/30 08:57:22;;;;;;;;;8.40;8.00;;;;;31.73;30.96;101432.34;4996468;28;45673;-49
2022/08/30 08:59:47;;;;;;;;;7.75;6.00;;;;;33.01;29.46;101436.78;4913687;28;45519;-50
2022/08/30 09:02:28;;;;;;;;;7.75;6.75;;;;;34.08;28.61;101445.66;4918785;28;45405;-50
2022/08/30 09:04:58;;;;;;;;;9.40;8.80;;;;;34.78;27.16;101448.13;5010920;28;45361;-53
2022/08/30 09:07:28;;;;;;;;;7.80;6.20;;;;;35.48;26.52;101449.25;4994180;28;45928;-53
2022/08/30 09:09:55;;;;;;;;;11.40;10.20;;;;;35.76;25.98;101445.81;5011438;28;45889;-51
2022/08/30 09:12:21;;;;;;;;;8.80;6.20;;;;;35.57;25.32;101440.31;4994342;28;45476;-52
2022/08/30 09:14:51;;;;;;;;;5.00;5.00;;;;;35.28;26.19;101440.38;5009333;28;46661;-47
2022/08/30 09:17:18;;;;;;;;;6.60;6.40;;;;;35.41;25.42;101447.94;5011193;28;45383;-47
2022/08/30 09:19:44;;;;;;;;;10.00;7.20;;;;;35.02;25.51;101443.47;5008995;28;45527;-49
2022/08/30 09:22:33;;;;;;;;;8.25;8.25;;;;;34.64;26.91;101435.00;5010340;28;45552;-51
2022/08/30 09:25:05;;;;;;;;;7.20;7.00;;;;;33.85;27.35;101436.16;4959632;28;46241;-48
2022/08/30 09:27:33;;;;;;;;;7.00;7.00;;;;;33.25;27.93;101448.00;4913436;28;45494;-48
2022/08/30 09:30:03;;;;;;;;;11.20;8.20;;;;;33.06;28.43;101452.47;4913038;28;45598;-51
2022/08/30 09:32:32;;;;;;;;;12.20;8.40;;;;;33.00;27.83;101445.34;4913598;28;45385;-47
2022/08/30 09:34:58;;;;;;;;;9.60;7.60;;;;;33.14;28.20;101448.34;4959209;28;45588;-51
2022/08/30 09:37:36;;;;;;;;;11.00;8.75;;;;;33.41;27.38;101450.69;4972988;28;45419;-46
2022/08/30 09:40:10;;;;;;;;;10.80;8.60;;;;;33.94;27.03;101437.19;4975291;28;45953;-46
2022/08/30 09:42:37;;;;;;;;;10.00;7.00;;;;;34.83;25.65;101443.34;4973236;28;45584;-49
2022/08/30 09:45:10;;;;;;;;;8.40;8.00;;;;;35.57;24.98;101441.13;4973215;28;47232;-51
2022/08/30 09:47:42;;;;;;;;;8.00;6.80;;;;;36.41;24.78;101448.69;4980350;28;45466;-51
2022/08/30 09:50:10;;;;;;;;;7.20;7.20;;;;;36.51;24.98;101448.53;5072177;27;45481;-48
2022/08/30 09:52:58;;;;;;;;;9.20;8.80;;;;;35.84;25.07;101443.19;5072857;27;45562;-47
2022/08/30 09:55:44;;;;;;;;;6.20;6.20;;;;;34.89;25.64;101439.41;5071923;28;46091;-48
2022/08/30 09:58:25;;;;;;;;;7.80;6.80;;;;;34.44;26.18;101444.25;5073325;27;45478;-46
2022/08/30 10:01:13;;;;;;;;;11.40;7.20;;;;;34.36;27.20;101453.16;5073101;27;45423;-49
2022/08/30 10:04:03;;;;;;;;;9.00;7.00;;;;;34.33;26.83;101447.38;5057340;27;45457;-45
2022/08/30 10:06:56;;;;;;;;;8.80;7.60;;;;;34.46;26.84;101439.25;5075729;27;47272;-46
2022/08/30 10:09:40;;;;;;;;;8.20;7.40;;;;;34.67;26.81;101444.63;5014856;28;45497;-50
2022/08/30 10:12:33;;;;;;;;;11.20;8.00;;;;;34.70;25.95;101442.09;5014983;28;45493;-51
2022/08/30 10:15:08;;;;;;;;;6.60;6.60;;;;;33.98;26.55;101450.16;5014819;28;45496;-51
2022/08/30 10:17:38;;;;;;;;;10.60;8.00;;;;;33.47;28.02;101444.09;5014648;28;45360;-49
2022/08/30 10:20:12;;;;;;;;;8.00;6.80;;;;;33.63;27.81;101448.41;5014067;28;45708;-48
2022/08/30 10:22:51;;;;;;;;;8.20;7.20;;;;;34.17;26.78;101441.16;5014564;28;45367;-49
2022/08/30 10:25:42;;;;;;;;;9.00;9.00;;;;;35.02;25.39;101443.47;5014672;28;45446;-50
2022/08/30 10:28:36;;;;;;;;;10.80;8.40;;;;;35.12;26.16;101443.31;5014281;28;47194;-47
2022/08/30 10:31:06;;;;;;;;;9.20;8.60;;;;;34.44;25.88;101446.19;5014090;28;45332;-47
2022/08/30 10:33:36;;;;;;;;;9.00;9.00;;;;;33.92;26.13;101444.91;5014423;28;45398;-49
2022/08/30 10:36:08;;;;;;;;;9.20;9.20;;;;;33.65;27.06;101443.44;5014055;28;45595;-45
2022/08/30 10:38:40;;;;;;;;;9.00;6.40;;;;;33.06;28.06;101443.38;5013848;28;46241;-46
2022/08/30 10:41:26;;;;;;;;;10.60;9.00;;;;;32.56;28.87;101448.69;4997714;28;45566;-47
2022/08/30 10:43:55;;;;;;;;;12.80;10.60;;;;;32.15;29.29;101451.44;5014144;28;45313;-51
2022/08/30 10:46:51;;;;;;;;;12.00;11.40;;;;;31.58;30.10;101451.56;5045993;27;45419;-49
2022/08/30 10:49:20;;;;;;;;;12.00;9.20;;;;;31.10;30.09;101453.50;5076176;27;46704;-49
2022/08/30 10:52:04;;;;;;;;;16.40;12.60;;;;;30.74;31.00;101461.56;5076366;27;45410;-47
2022/08/30 10:54:39;;;;;;;;;12.80;9.80;;;;;30.47;30.79;101459.69;5092090;27;45265;-48
2022/08/30 10:57:05;;;;;;;;;12.80;11.00;;;;;30.21;31.94;101455.03;5076685;27;45448;-49
2022/08/30 10:59:32;;;;;;;;;16.00;12.00;;;;;30.00;32.03;101465.81;5076195;27;46291;-47
2022/08/30 11:02:46;;;;;;;;;11.60;9.80;;;;;29.80;32.03;101460.94;5076213;27;45296;-46
2022/08/30 11:05:23;;;;;;;;;17.00;12.80;;;;;29.59;32.10;101453.56;5076133;27;45259;-49
2022/08/30 11:07:49;;;;;;;;;13.40;12.20;;;;;29.45;32.70;101458.56;5079784;27;45317;-48
2022/08/30 11:10:23;;;;;;;;;11.00;9.50;;;;;29.33;33.54;101452.41;5079782;28;45360;-45
2022/08/30 11:13:00;;;;;;;;;11.40;10.60;;;;;29.20;33.40;101458.22;5079855;27;45460;-46
2022/08/30 11:15:30;;;;;;;;;12.40;9.60;;;;;29.12;33.90;101458.66;5079609;27;45401;-46
2022/08/30 11:18:07;;;;;;;;;11.20;9.00;;;;;29.23;33.66;101457.72;5079677;27;45421;-46
2022/08/30 11:20:39;;;;;;;;;11.80;11.80;;;;;29.42;34.18;101444.56;5079289;27;46408;-47
2022/08/30 11:23:31;;;;;;;;;12.00;9.80;;;;;29.69;33.76;101445.44;5079301;27;45713;-48
2022/08/30 11:26:06;;;;;;;;;12.60;10.20;;;;;29.89;33.68;101447.59;5079569;27;45356;-47
2022/08/30 11:28:54;;;;;;;;;11.40;10.80;;;;;29.92;33.51;101449.81;5080197;27;45378;-47
2022/08/30 11:31:19;;;;;;;;;10.40;10.40;;;;;29.98;33.24;101457.00;5078784;28;46333;-48
2022/08/30 11:33:46;;;;;;;;;16.50;11.50;;;;;29.93;33.18;101447.91;5079269;27;45401;-48
2022/08/30 11:36:34;;;;;;;;;10.80;9.20;;;;;29.88;33.59;101445.13;5079431;27;45300;-47